createdAt,value
2019-02-16T00:02:22.141Z,73.07
2019-02-16T00:04:53.047Z,72.97
2019-02-16T00:07:23.990Z,72.97
2019-02-16T00:09:54.886Z,72.93
2019-02-16T00:12:25.841Z,72.89
2019-02-16T00:14:56.747Z,72.77
2019-02-16T00:17:27.720Z,72.74
2019-02-16T00:19:58.644Z,72.70
2019-02-16T00:22:29.566Z,72.71
2019-02-16T00:25:01.064Z,72.69
2019-02-16T00:27:32.027Z,72.72
2019-02-16T00:30:02.961Z,72.67
2019-02-16T00:32:33.958Z,72.64
2019-02-16T00:35:05.766Z,72.57
2019-02-16T00:37:36.707Z,72.57
2019-02-16T00:40:08.910Z,72.56
2019-02-16T00:42:39.870Z,72.46
2019-02-16T00:45:11.889Z,72.41
2019-02-16T00:47:42.799Z,72.39
2019-02-16T00:50:13.702Z,72.48
2019-02-16T00:52:46.378Z,72.49
2019-02-16T00:55:24.163Z,72.57
2019-02-16T00:57:55.241Z,72.64
2019-02-16T01:00:26.307Z,72.60
2019-02-16T01:02:57.206Z,72.60
2019-02-16T01:05:28.120Z,72.69
2019-02-16T01:07:59.053Z,72.65
2019-02-16T01:10:31.809Z,72.65
2019-02-16T01:13:05.881Z,72.64
2019-02-16T01:15:44.261Z,72.62
2019-02-16T01:18:15.186Z,72.59
2019-02-16T01:20:46.091Z,72.64
2019-02-16T01:23:17.016Z,72.69
2019-02-16T01:25:48.090Z,72.78
2019-02-16T01:28:19.145Z,72.83
2019-02-16T01:30:50.048Z,72.92
2019-02-16T01:33:22.455Z,72.99
2019-02-16T01:35:53.368Z,73.04
2019-02-16T01:38:24.301Z,73.10
2019-02-16T01:40:55.208Z,73.13
2019-02-16T01:43:26.226Z,73.16
2019-02-16T01:45:57.131Z,73.17
2019-02-16T01:48:28.064Z,73.11
2019-02-16T01:50:58.973Z,73.03
2019-02-16T01:53:29.912Z,72.89
2019-02-16T01:56:00.803Z,72.83
2019-02-16T01:58:31.774Z,72.81
2019-02-16T02:01:03.298Z,72.81
2019-02-16T02:03:34.968Z,72.81
2019-02-16T02:06:08.569Z,72.78
2019-02-16T02:08:39.663Z,72.73
2019-02-16T02:11:13.366Z,72.68
2019-02-16T02:13:44.334Z,72.60
2019-02-16T02:16:16.674Z,72.50
2019-02-16T02:18:47.682Z,72.39
2019-02-16T02:21:18.575Z,72.21
2019-02-16T02:23:49.507Z,72.13
2019-02-16T02:26:20.410Z,71.90
2019-02-16T02:28:51.373Z,71.91
2019-02-16T02:31:23.721Z,71.78
2019-02-16T02:33:54.656Z,71.71
2019-02-16T02:36:25.559Z,71.78
2019-02-16T02:38:56.501Z,71.82
2019-02-16T02:41:27.401Z,71.85
2019-02-16T02:43:58.587Z,71.89
2019-02-16T02:46:29.499Z,71.93
2019-02-16T02:49:00.428Z,71.97
2019-02-16T02:51:31.380Z,72.08
2019-02-16T02:54:02.363Z,72.15
2019-02-16T02:56:36.426Z,72.25
2019-02-16T02:59:09.821Z,72.31
2019-02-16T03:01:40.715Z,72.35
2019-02-16T03:04:11.657Z,72.46
2019-02-16T03:06:42.561Z,72.54
2019-02-16T03:09:13.492Z,72.64
2019-02-16T03:11:44.399Z,72.73
2019-02-16T03:14:15.351Z,72.79
2019-02-16T03:16:46.256Z,72.76
2019-02-16T03:19:21.453Z,72.77
2019-02-16T03:22:00.599Z,72.81
2019-02-16T03:24:25.003Z,72.88
2019-02-16T03:27:19.221Z,72.90
2019-02-16T03:30:26.512Z,72.89
2019-02-16T03:33:18.232Z,72.87
2019-02-16T03:36:03.904Z,72.88
2019-02-16T03:38:43.247Z,72.94
2019-02-16T03:41:14.263Z,73.05
2019-02-16T03:43:45.208Z,73.07
2019-02-16T03:46:16.525Z,73.16
2019-02-16T03:48:47.434Z,73.18
2019-02-16T03:51:18.368Z,73.16
2019-02-16T03:53:49.286Z,73.23
2019-02-16T03:56:20.210Z,73.31
2019-02-16T03:58:51.123Z,73.37
2019-02-16T04:01:22.097Z,73.44
2019-02-16T04:03:57.541Z,73.43
2019-02-16T04:06:28.477Z,73.48
2019-02-16T04:08:59.379Z,73.59
2019-02-16T04:11:30.336Z,73.65
2019-02-16T04:14:01.223Z,73.68
2019-02-16T04:16:32.275Z,73.81
2019-02-16T04:19:03.197Z,73.85
2019-02-16T04:21:34.129Z,73.87
2019-02-16T04:24:05.097Z,73.81
2019-02-16T04:26:36.028Z,73.75
2019-02-16T04:29:06.931Z,73.71
2019-02-16T04:31:37.912Z,73.66
2019-02-16T04:34:08.831Z,73.59
2019-02-16T04:36:39.754Z,73.59
2019-02-16T04:39:10.659Z,73.60
2019-02-16T04:41:41.608Z,73.58
2019-02-16T04:44:12.512Z,73.54
2019-02-16T04:46:43.473Z,73.42
2019-02-16T04:49:14.366Z,73.40
2019-02-16T04:51:48.294Z,73.33
2019-02-16T04:54:19.367Z,73.25
2019-02-16T04:56:50.295Z,73.21
2019-02-16T04:59:21.197Z,73.22
2019-02-16T05:01:54.806Z,73.25
2019-02-16T05:04:25.709Z,73.22
2019-02-16T05:06:56.654Z,73.22
2019-02-16T05:09:27.542Z,73.21
2019-02-16T05:11:58.476Z,73.19
2019-02-16T05:14:29.371Z,73.21
2019-02-16T05:17:00.357Z,73.22
2019-02-16T05:19:31.310Z,73.24
2019-02-16T05:22:02.573Z,73.21
2019-02-16T05:24:33.447Z,73.23
2019-02-16T05:27:06.183Z,73.17
2019-02-16T05:29:37.097Z,73.14
2019-02-16T05:32:08.083Z,73.08
2019-02-16T05:34:38.993Z,73.07
2019-02-16T05:37:09.921Z,73.02
2019-02-16T05:39:40.896Z,72.96
2019-02-16T05:42:11.902Z,72.90
2019-02-16T05:44:42.877Z,72.85
2019-02-16T05:47:15.781Z,72.72
2019-02-16T05:49:46.691Z,72.61
2019-02-16T05:52:17.679Z,72.51
2019-02-16T05:54:48.597Z,72.40
2019-02-16T05:57:19.526Z,72.41
2019-02-16T05:59:50.447Z,72.25
2019-02-16T06:02:21.729Z,72.09
2019-02-16T06:04:52.625Z,72.06
2019-02-16T06:07:23.559Z,71.84
2019-02-16T06:09:54.459Z,71.70
2019-02-16T06:12:25.389Z,71.70
2019-02-16T06:14:56.304Z,71.64
2019-02-16T06:17:27.294Z,71.73
2019-02-16T06:19:58.198Z,71.69
2019-02-16T06:22:29.136Z,71.58
2019-02-16T06:25:00.025Z,71.36
2019-02-16T06:27:30.965Z,71.06
2019-02-16T06:30:01.859Z,71.06
2019-02-16T06:32:32.817Z,70.90
2019-02-16T06:35:08.472Z,70.73
2019-02-16T06:37:39.400Z,70.32
2019-02-16T06:40:10.300Z,69.98
2019-02-16T06:42:41.237Z,70.11
2019-02-16T06:45:12.225Z,69.96
2019-02-16T06:47:44.287Z,69.77
2019-02-16T06:50:19.653Z,68.79
2019-02-16T06:52:50.573Z,68.93
2019-02-16T06:55:22.154Z,68.34
2019-02-16T06:57:53.089Z,67.49
2019-02-16T07:00:25.568Z,66.98
2019-02-16T07:02:56.966Z,66.58
2019-02-16T07:05:28.955Z,65.82
2019-02-16T07:07:59.977Z,65.12
2019-02-16T07:10:32.391Z,64.57
2019-02-16T07:13:03.337Z,63.89
2019-02-16T07:15:34.231Z,63.41
2019-02-16T07:18:15.663Z,63.49
2019-02-16T07:20:49.429Z,62.09
2019-02-16T07:23:22.456Z,61.95
2019-02-16T07:25:52.960Z,61.03
2019-02-16T07:28:40.066Z,60.41
2019-02-16T07:31:10.971Z,59.21
2019-02-16T07:33:41.958Z,58.52
2019-02-16T07:36:15.962Z,58.31
2019-02-16T07:38:46.894Z,57.25
2019-02-16T07:41:17.802Z,56.23
2019-02-16T07:43:53.087Z,55.38
2019-02-16T07:46:28.708Z,54.39
2019-02-16T07:49:04.164Z,53.45
2019-02-16T07:51:39.736Z,53.16
2019-02-16T07:54:15.083Z,52.56
2019-02-16T07:56:53.403Z,52.17
2019-02-16T07:59:28.995Z,51.32
2019-02-16T08:02:01.742Z,50.84
2019-02-16T08:04:50.792Z,50.12
2019-02-16T08:07:29.267Z,49.45
2019-02-16T08:10:10.605Z,49.07
2019-02-16T08:12:55.363Z,48.70
2019-02-16T08:15:44.452Z,48.13
2019-02-16T08:18:25.925Z,47.98
2019-02-16T08:21:10.586Z,47.19
2019-02-16T08:23:51.922Z,47.42
2019-02-16T08:26:36.612Z,47.12
2019-02-16T08:29:25.231Z,46.85
2019-02-16T08:32:00.768Z,46.47
2019-02-16T08:34:42.343Z,45.92
2019-02-16T08:37:18.068Z,45.48
2019-02-16T08:39:53.328Z,45.00
2019-02-16T08:42:41.179Z,44.95
2019-02-16T08:45:31.794Z,45.00
2019-02-16T08:48:22.889Z,44.40
2019-02-16T08:50:55.452Z,44.68
2019-02-16T08:53:31.434Z,44.47
2019-02-16T08:56:03.982Z,44.48
2019-02-16T08:58:48.476Z,44.46
2019-02-16T09:01:39.466Z,44.52
2019-02-16T09:04:17.827Z,44.61
2019-02-16T09:06:59.030Z,44.63
2019-02-16T09:09:50.147Z,44.58
2019-02-16T09:12:35.452Z,44.77
2019-02-16T09:15:19.728Z,45.35
2019-02-16T09:17:54.999Z,45.32
2019-02-16T09:20:36.520Z,45.54
2019-02-16T09:23:09.081Z,45.50
2019-02-16T09:25:47.772Z,45.66
2019-02-16T09:28:20.326Z,45.66
2019-02-16T09:31:09.058Z,45.52
2019-02-16T09:33:57.967Z,45.70
2019-02-16T09:36:46.906Z,45.78
2019-02-16T09:39:31.655Z,45.48
2019-02-16T09:42:04.261Z,45.63
2019-02-16T09:44:39.754Z,46.48
2019-02-16T09:47:28.371Z,45.52
2019-02-16T09:50:06.949Z,44.86
2019-02-16T09:52:39.523Z,44.76
2019-02-16T09:55:12.052Z,44.70
2019-02-16T09:58:02.779Z,44.48
2019-02-16T10:00:39.115Z,44.38
2019-02-16T10:03:11.667Z,43.56
2019-02-16T10:05:44.208Z,43.69
2019-02-16T10:08:22.784Z,42.99
2019-02-16T10:11:04.059Z,43.14
2019-02-16T10:13:42.553Z,42.98
2019-02-16T10:16:31.372Z,42.56
2019-02-16T10:19:03.933Z,43.09
2019-02-16T10:21:48.432Z,42.88
2019-02-16T10:24:27.274Z,42.71
2019-02-16T10:27:05.590Z,42.80
2019-02-16T10:29:47.214Z,43.17
2019-02-16T10:32:22.543Z,43.40
2019-02-16T10:34:55.105Z,43.55
2019-02-16T10:37:33.687Z,42.88
2019-02-16T10:40:16.278Z,41.89
2019-02-16T10:43:04.043Z,42.32
2019-02-16T10:45:36.814Z,42.52
2019-02-16T10:48:12.038Z,40.94
2019-02-16T10:50:44.616Z,40.75
2019-02-16T10:53:17.168Z,39.38
2019-02-16T10:55:51.210Z,39.56
2019-02-16T10:58:23.744Z,39.21
2019-02-16T11:01:02.435Z,39.73
2019-02-16T11:03:40.713Z,39.02
2019-02-16T11:06:19.131Z,39.00
2019-02-16T11:08:52.480Z,37.77
2019-02-16T11:11:33.979Z,38.08
2019-02-16T11:14:06.510Z,37.80
2019-02-16T11:16:41.812Z,37.79
2019-02-16T11:19:22.881Z,38.19
2019-02-16T11:21:55.444Z,38.71
2019-02-16T11:24:40.311Z,39.02
2019-02-16T11:27:12.971Z,39.30
2019-02-16T11:30:01.764Z,39.43
2019-02-16T11:32:34.352Z,39.67
2019-02-16T11:35:07.791Z,38.97
2019-02-16T11:37:40.363Z,38.87
2019-02-16T11:40:15.864Z,39.19
2019-02-16T11:42:51.390Z,39.31
2019-02-16T11:45:30.021Z,39.55
2019-02-16T11:48:02.617Z,39.97
2019-02-16T11:50:47.267Z,39.87
2019-02-16T11:53:38.100Z,39.43
2019-02-16T11:56:13.580Z,40.21
2019-02-16T11:59:02.930Z,40.06
2019-02-16T12:01:41.429Z,39.74
2019-02-16T12:04:17.183Z,39.47
2019-02-16T12:06:55.907Z,39.04
2019-02-16T12:09:36.267Z,39.28
2019-02-16T12:12:21.266Z,39.38
2019-02-16T12:14:56.535Z,39.37
2019-02-16T12:17:37.966Z,39.43
2019-02-16T12:20:13.280Z,39.11
2019-02-16T12:22:45.826Z,38.95
2019-02-16T12:25:36.648Z,39.16
2019-02-16T12:28:25.287Z,39.68
2019-02-16T12:31:00.838Z,39.32
2019-02-16T12:33:39.144Z,38.13
2019-02-16T12:36:30.046Z,37.55
2019-02-16T12:39:04.750Z,37.81
2019-02-16T12:41:36.866Z,37.60
2019-02-16T12:44:28.563Z,37.25
2019-02-16T12:47:12.932Z,36.59
2019-02-16T12:49:54.269Z,36.35
2019-02-16T12:52:41.868Z,36.19
2019-02-16T12:55:17.598Z,35.03
2019-02-16T12:57:55.666Z,35.23
2019-02-16T13:00:40.198Z,35.15
2019-02-16T13:03:24.451Z,35.34
2019-02-16T13:06:09.198Z,34.97
2019-02-16T13:08:47.960Z,34.60
2019-02-16T13:11:23.156Z,34.79
2019-02-16T13:14:13.827Z,33.83
2019-02-16T13:17:02.691Z,34.16
2019-02-16T13:19:38.384Z,34.64
2019-02-16T13:22:21.445Z,34.68
2019-02-16T13:24:55.500Z,34.66
2019-02-16T13:27:36.837Z,35.30
2019-02-16T13:30:19.317Z,35.75
2019-02-16T13:33:08.082Z,35.81
2019-02-16T13:35:39.873Z,36.10
2019-02-16T13:38:21.163Z,35.78
2019-02-16T13:40:54.833Z,35.94
2019-02-16T13:43:36.517Z,36.19
2019-02-16T13:46:24.017Z,36.03
2019-02-16T13:48:56.545Z,36.13
2019-02-16T13:51:45.167Z,36.08
2019-02-16T13:54:17.702Z,36.09
2019-02-16T13:57:05.562Z,36.03
2019-02-16T13:59:48.238Z,36.18
2019-02-16T14:02:29.580Z,36.17
2019-02-16T14:05:02.122Z,36.28
2019-02-16T14:07:40.672Z,36.29
2019-02-16T14:10:28.184Z,36.29
2019-02-16T14:13:15.704Z,36.08
2019-02-16T14:15:54.401Z,36.15
2019-02-16T14:18:27.859Z,36.47
2019-02-16T14:20:57.926Z,36.75
2019-02-16T14:23:28.878Z,36.74
2019-02-16T14:25:59.776Z,36.82
2019-02-16T14:28:33.675Z,36.77
2019-02-16T14:31:04.578Z,37.03
2019-02-16T14:33:35.503Z,37.09
2019-02-16T14:36:07.940Z,37.33
2019-02-16T14:38:40.514Z,37.31
2019-02-16T14:41:14.411Z,37.63
2019-02-16T14:43:49.778Z,37.42
2019-02-16T14:46:20.696Z,37.43
2019-02-16T14:48:51.638Z,37.58
2019-02-16T14:51:22.555Z,37.52
2019-02-16T14:53:53.491Z,37.68
2019-02-16T14:56:24.397Z,37.57
2019-02-16T14:58:55.359Z,37.47
2019-02-16T15:01:26.268Z,37.76
2019-02-16T15:03:57.211Z,37.99
2019-02-16T15:06:31.106Z,37.89
2019-02-16T15:09:02.038Z,37.75
2019-02-16T15:11:32.932Z,37.79
2019-02-16T15:14:03.887Z,37.71
2019-02-16T15:16:34.808Z,37.92
2019-02-16T15:19:05.743Z,37.81
2019-02-16T15:21:36.656Z,37.98
2019-02-16T15:24:07.774Z,38.15
2019-02-16T15:26:38.694Z,38.37
2019-02-16T15:29:09.647Z,38.41
2019-02-16T15:31:42.204Z,38.64
2019-02-16T15:34:13.144Z,38.89
2019-02-16T15:36:44.064Z,39.09
2019-02-16T15:39:15.025Z,39.37
2019-02-16T15:41:45.923Z,39.58
2019-02-16T15:44:16.895Z,39.86
2019-02-16T15:46:47.811Z,40.00
2019-02-16T15:49:18.741Z,40.33
2019-02-16T15:51:49.656Z,40.49
2019-02-16T15:54:23.281Z,40.73
2019-02-16T15:56:54.198Z,40.94
2019-02-16T15:59:25.221Z,41.17
2019-02-16T16:01:56.128Z,41.34
2019-02-16T16:04:27.116Z,41.35
2019-02-16T16:06:58.022Z,41.57
2019-02-16T16:09:45.948Z,41.69
2019-02-16T16:12:24.399Z,41.89
2019-02-16T16:15:14.377Z,42.04
2019-02-16T16:17:49.915Z,42.26
2019-02-16T16:20:32.365Z,42.37
2019-02-16T16:23:07.539Z,42.58
2019-02-16T16:25:40.134Z,42.79
2019-02-16T16:28:21.446Z,43.01
2019-02-16T16:30:54.047Z,43.27
2019-02-16T16:33:35.624Z,43.57
2019-02-16T16:36:10.907Z,43.79
2019-02-16T16:38:43.463Z,43.94
2019-02-16T16:41:18.800Z,44.09
2019-02-16T16:44:03.537Z,44.27
2019-02-16T16:46:36.134Z,44.40
2019-02-16T16:49:14.422Z,44.79
2019-02-16T16:51:51.064Z,44.86
2019-02-16T16:54:23.627Z,44.88
2019-02-16T16:56:59.177Z,45.09
2019-02-16T16:59:37.441Z,45.12
2019-02-16T17:02:28.080Z,45.32
2019-02-16T17:05:00.652Z,45.61
2019-02-16T17:07:33.225Z,45.70
2019-02-16T17:10:15.438Z,45.80
2019-02-16T17:13:04.333Z,45.94
2019-02-16T17:15:37.814Z,46.19
2019-02-16T17:18:13.167Z,46.31
2019-02-16T17:20:48.525Z,46.47
2019-02-16T17:23:40.310Z,47.03
2019-02-16T17:26:15.667Z,47.08
2019-02-16T17:28:51.392Z,47.24
2019-02-16T17:31:23.942Z,47.38
2019-02-16T17:34:14.673Z,47.58
2019-02-16T17:36:59.262Z,47.65
2019-02-16T17:39:48.095Z,47.70
2019-02-16T17:42:35.674Z,47.88
2019-02-16T17:45:27.393Z,48.10
2019-02-16T17:48:16.034Z,48.26
2019-02-16T17:50:54.623Z,48.45
2019-02-16T17:53:27.170Z,48.68
2019-02-16T17:55:59.747Z,48.78
2019-02-16T17:58:32.290Z,48.92
2019-02-16T18:01:10.645Z,49.09
2019-02-16T18:03:59.817Z,49.22
2019-02-16T18:06:35.452Z,49.23
2019-02-16T18:09:08.400Z,49.34
2019-02-16T18:11:42.474Z,49.44
2019-02-16T18:14:15.035Z,49.53
2019-02-16T18:16:47.607Z,49.63
2019-02-16T18:19:26.118Z,49.71
2019-02-16T18:22:13.942Z,49.76
2019-02-16T18:24:46.492Z,49.81
2019-02-16T18:27:21.756Z,50.01
2019-02-16T18:29:57.277Z,50.17
2019-02-16T18:32:45.950Z,50.11
2019-02-16T18:35:23.911Z,50.14
2019-02-16T18:37:55.861Z,50.13
2019-02-16T18:40:31.240Z,50.25
2019-02-16T18:43:15.816Z,50.24
2019-02-16T18:45:48.355Z,50.18
2019-02-16T18:48:39.696Z,50.15
2019-02-16T18:51:28.327Z,50.14
2019-02-16T18:54:17.355Z,50.22
2019-02-16T18:56:49.911Z,50.18
2019-02-16T18:59:25.446Z,50.25
2019-02-16T19:02:07.230Z,50.25
2019-02-16T19:04:42.655Z,50.25
2019-02-16T19:07:24.182Z,50.31
2019-02-16T19:10:02.825Z,50.35
2019-02-16T19:12:35.350Z,50.43
2019-02-16T19:15:27.990Z,50.58
2019-02-16T19:18:03.262Z,50.61
2019-02-16T19:20:35.808Z,50.71
2019-02-16T19:23:08.359Z,50.84
2019-02-16T19:25:47.100Z,50.91
2019-02-16T19:28:19.652Z,51.00
2019-02-16T19:30:54.950Z,51.14
2019-02-16T19:33:30.207Z,51.29
2019-02-16T19:36:07.333Z,51.32
2019-02-16T19:38:50.647Z,51.44
2019-02-16T19:41:26.043Z,51.60
2019-02-16T19:44:16.793Z,51.78
2019-02-16T19:47:01.654Z,51.82
2019-02-16T19:49:37.154Z,51.87
2019-02-16T19:52:25.968Z,51.93
2019-02-16T19:55:14.771Z,52.06
2019-02-16T19:57:53.195Z,52.00
2019-02-16T20:00:43.977Z,52.16
2019-02-16T20:03:28.403Z,52.21
2019-02-16T20:06:10.112Z,52.29
2019-02-16T20:08:48.595Z,52.37
2019-02-16T20:11:23.895Z,52.60
2019-02-16T20:14:08.567Z,52.51
2019-02-16T20:16:41.113Z,52.57
2019-02-16T20:19:16.647Z,52.78
2019-02-16T20:22:01.044Z,52.81
2019-02-16T20:24:36.729Z,52.83
2019-02-16T20:27:24.534Z,52.83
2019-02-16T20:29:57.114Z,52.89
2019-02-16T20:32:29.655Z,53.04
2019-02-16T20:35:02.243Z,53.03
2019-02-16T20:37:39.371Z,53.07
2019-02-16T20:40:27.083Z,53.16
2019-02-16T20:43:17.631Z,53.33
2019-02-16T20:45:56.220Z,53.30
2019-02-16T20:48:45.117Z,53.37
2019-02-16T20:51:29.647Z,53.47
2019-02-16T20:54:05.260Z,53.47
2019-02-16T20:56:37.900Z,53.51
2019-02-16T20:59:19.700Z,53.67
2019-02-16T21:01:52.288Z,53.77
2019-02-16T21:04:33.828Z,53.79
2019-02-16T21:07:12.379Z,53.82
2019-02-16T21:09:44.929Z,53.87
2019-02-16T21:12:17.493Z,54.08
2019-02-16T21:14:56.185Z,54.19
2019-02-16T21:17:35.428Z,54.21
2019-02-16T21:20:24.599Z,54.30
2019-02-16T21:23:13.480Z,54.40
2019-02-16T21:25:46.063Z,54.46
2019-02-16T21:28:18.634Z,54.41
2019-02-16T21:30:53.881Z,54.63
2019-02-16T21:33:26.487Z,54.74
2019-02-16T21:36:07.799Z,54.95
2019-02-16T21:38:51.292Z,54.86
2019-02-16T21:41:32.401Z,55.07
2019-02-16T21:44:07.714Z,55.18
2019-02-16T21:46:46.261Z,55.28
2019-02-16T21:49:39.371Z,55.48
2019-02-16T21:52:18.855Z,55.60
2019-02-16T21:55:00.757Z,55.75
2019-02-16T21:57:39.205Z,55.88
2019-02-16T22:00:24.306Z,56.00
2019-02-16T22:02:58.467Z,56.10
2019-02-16T22:05:49.510Z,56.25
2019-02-16T22:08:31.139Z,56.36
2019-02-16T22:11:12.458Z,56.51
2019-02-16T22:13:43.350Z,56.39
2019-02-16T22:16:17.264Z,56.68
2019-02-16T22:18:51.647Z,56.96
2019-02-16T22:21:22.619Z,56.85
2019-02-16T22:23:56.264Z,56.94
2019-02-16T22:26:27.199Z,57.04
2019-02-16T22:28:58.094Z,57.21
2019-02-16T22:31:29.105Z,57.29
2019-02-16T22:34:00.006Z,57.38
2019-02-16T22:36:30.959Z,57.28
2019-02-16T22:39:01.858Z,57.52
2019-02-16T22:41:39.124Z,57.47
2019-02-16T22:44:10.055Z,57.65
2019-02-16T22:46:41.578Z,57.66
2019-02-16T22:49:12.578Z,57.66
2019-02-16T22:51:45.040Z,57.81
2019-02-16T22:54:16.010Z,57.83
2019-02-16T22:56:46.932Z,58.20
2019-02-16T22:59:17.838Z,58.09
2019-02-16T23:01:48.771Z,58.36
2019-02-16T23:04:19.671Z,58.49
2019-02-16T23:06:52.156Z,58.60
2019-02-16T23:09:24.691Z,58.82
2019-02-16T23:11:57.147Z,59.16
2019-02-16T23:14:28.314Z,59.19
2019-02-16T23:17:02.122Z,59.38
2019-02-16T23:19:35.698Z,59.57
2019-02-16T23:22:06.725Z,59.63
2019-02-16T23:24:37.589Z,59.93
2019-02-16T23:27:08.529Z,59.83
2019-02-16T23:29:39.428Z,59.78
2019-02-16T23:32:10.359Z,59.86
2019-02-16T23:34:41.267Z,59.87
2019-02-16T23:37:12.211Z,59.97
2019-02-16T23:39:43.111Z,60.02
2019-02-16T23:42:14.058Z,60.23
2019-02-16T23:44:47.960Z,60.26
2019-02-16T23:47:18.887Z,60.44
2019-02-16T23:49:55.526Z,60.55
2019-02-16T23:52:26.507Z,60.62
2019-02-16T23:54:57.411Z,60.74
2019-02-16T23:57:28.350Z,60.73
2019-02-16T23:59:59.247Z,60.86
